Time;durP1;ratioP1;P1;durP2;ratioP2;P2;SDS_P1;SDS_P2;PMS_P1;PMS_P2;Temp;Humidity;BMP_temperature;BMP_pressure;BME280_temperature;BME280_humidity;BME280_pressure;Samples;Min_cycle;Max_cycle;Signal;HPM_P1;HPM_P2
2023/02/05 00:02:10;;;;;;;0.50;0.50;;;11.90;74.80;;;;;;6189698;23;20052;-69
2023/02/05 00:04:36;;;;;;;0.65;0.65;;;11.80;74.80;;;;;;6215581;23;20011;-69
2023/02/05 00:07:02;;;;;;;0.60;0.60;;;11.80;74.80;;;;;;6214349;23;20008;-69
2023/02/05 00:09:28;;;;;;;1.13;0.60;;;11.80;74.80;;;;;;6214419;23;20001;-69
2023/02/05 00:11:55;;;;;;;0.60;0.60;;;11.80;74.80;;;;;;6214424;23;20008;-69
2023/02/05 00:14:20;;;;;;;0.60;0.60;;;11.80;74.80;;;;;;6215772;23;20001;-69
2023/02/05 00:16:46;;;;;;;0.50;0.50;;;11.80;74.80;;;;;;6215496;23;20027;-69
2023/02/05 00:19:12;;;;;;;0.80;0.80;;;11.80;74.90;;;;;;6215801;23;20504;-69
2023/02/05 00:21:37;;;;;;;0.70;0.60;;;11.90;74.90;;;;;;6189084;23;20028;-69
2023/02/05 00:24:03;;;;;;;0.77;0.77;;;11.80;74.80;;;;;;6215668;23;20450;-69
2023/02/05 00:26:29;;;;;;;0.80;0.80;;;11.80;74.80;;;;;;6189035;23;20023;-69
2023/02/05 00:28:54;;;;;;;0.60;0.52;;;11.80;74.80;;;;;;6213907;23;20008;-69
2023/02/05 00:31:20;;;;;;;0.45;0.45;;;11.90;74.80;;;;;;6215502;23;20079;-69
2023/02/05 00:33:47;;;;;;;1.48;0.60;;;11.80;74.70;;;;;;6189330;23;20076;-69
2023/02/05 00:36:13;;;;;;;0.80;0.50;;;11.80;74.80;;;;;;6189382;23;19997;-69
2023/02/05 00:38:39;;;;;;;0.63;0.60;;;11.80;74.80;;;;;;6188950;23;20008;-69
2023/02/05 00:41:05;;;;;;;0.98;0.70;;;11.80;74.80;;;;;;6214086;23;20005;-69
2023/02/05 00:43:30;;;;;;;0.52;0.52;;;11.80;74.80;;;;;;6215335;23;20000;-69
2023/02/05 00:45:56;;;;;;;0.70;0.70;;;11.80;74.80;;;;;;6189121;23;20023;-69
2023/02/05 00:48:22;;;;;;;0.57;0.40;;;11.80;74.80;;;;;;6215267;23;20032;-69
2023/02/05 00:50:48;;;;;;;0.40;0.40;;;11.80;74.80;;;;;;6214127;23;20024;-69
2023/02/05 00:53:14;;;;;;;0.75;0.70;;;11.80;74.80;;;;;;6213991;23;20020;-69
2023/02/05 00:55:40;;;;;;;0.63;0.63;;;11.80;74.80;;;;;;6214110;23;20314;-69
2023/02/05 00:58:05;;;;;;;0.60;0.60;;;11.80;74.80;;;;;;6215089;23;20314;-69
2023/02/05 01:00:32;;;;;;;0.60;0.60;;;11.80;74.80;;;;;;6215325;23;20452;-69
2023/02/05 01:02:57;;;;;;;1.50;0.77;;;11.80;74.80;;;;;;6215437;23;20054;-69
2023/02/05 01:05:23;;;;;;;0.65;0.65;;;11.80;74.80;;;;;;6215011;23;20028;-69
2023/02/05 01:07:49;;;;;;;0.47;0.47;;;11.80;74.80;;;;;;6215164;23;19997;-69
2023/02/05 01:10:14;;;;;;;0.60;0.60;;;11.80;74.80;;;;;;6215386;23;20004;-69
2023/02/05 01:12:40;;;;;;;1.10;0.68;;;11.80;74.80;;;;;;6213445;23;20004;-69
2023/02/05 01:15:06;;;;;;;0.80;0.50;;;11.80;74.80;;;;;;6215070;23;20445;-68
2023/02/05 01:17:32;;;;;;;1.00;0.70;;;11.80;74.80;;;;;;6213656;23;20068;-69
2023/02/05 01:19:58;;;;;;;0.77;0.55;;;11.80;74.80;;;;;;6213798;23;20103;-68
2023/02/05 01:22:23;;;;;;;0.60;0.60;;;11.80;74.70;;;;;;6215190;23;20012;-69
2023/02/05 01:24:49;;;;;;;0.60;0.60;;;11.80;74.70;;;;;;6213819;23;20392;-69
2023/02/05 01:27:14;;;;;;;1.15;0.68;;;11.80;74.70;;;;;;6188247;23;20464;-69
2023/02/05 01:29:40;;;;;;;0.57;0.57;;;11.80;74.70;;;;;;6213455;23;20011;-69
2023/02/05 01:32:06;;;;;;;0.60;0.60;;;11.80;74.70;;;;;;6213670;23;19996;-69
2023/02/05 01:34:31;;;;;;;0.75;0.75;;;11.80;74.80;;;;;;6213231;23;20050;-69
2023/02/05 01:36:57;;;;;;;0.98;0.70;;;11.80;74.80;;;;;;6213613;23;20051;-69
2023/02/05 01:39:23;;;;;;;0.70;0.70;;;11.80;74.80;;;;;;6213533;23;20059;-69
2023/02/05 01:41:48;;;;;;;0.73;0.73;;;11.80;74.80;;;;;;6213175;23;20050;-69
2023/02/05 01:44:17;;;;;;;0.60;0.60;;;11.80;74.80;;;;;;6213553;23;20083;-69
2023/02/05 01:46:46;;;;;;;0.60;0.60;;;11.80;74.80;;;;;;6188897;23;20004;-69
2023/02/05 01:49:22;;;;;;;0.70;0.70;;;11.80;74.70;;;;;;6188890;23;20027;-69
2023/02/05 01:51:48;;;;;;;0.47;0.47;;;11.80;74.70;;;;;;6213452;23;19996;-69
2023/02/05 01:54:15;;;;;;;0.60;0.60;;;11.80;74.70;;;;;;6213348;23;20001;-69
2023/02/05 01:56:45;;;;;;;0.73;0.73;;;11.80;74.70;;;;;;6213285;23;20004;-69
2023/02/05 01:59:18;;;;;;;0.85;0.65;;;11.80;74.70;;;;;;6188509;23;20007;-69
2023/02/05 02:01:43;;;;;;;0.70;0.60;;;11.80;74.70;;;;;;6189405;23;20051;-69
2023/02/05 02:04:09;;;;;;;0.50;0.50;;;11.80;74.70;;;;;;6213391;23;20000;-69
2023/02/05 02:06:35;;;;;;;0.52;0.52;;;11.80;74.70;;;;;;6214675;23;20075;-69
2023/02/05 02:09:02;;;;;;;0.93;0.60;;;11.80;74.80;;;;;;6214475;23;20004;-69
2023/02/05 02:11:28;;;;;;;0.68;0.68;;;11.80;74.90;;;;;;6213347;23;19996;-69
2023/02/05 02:13:55;;;;;;;0.70;0.70;;;11.80;74.80;;;;;;6213318;23;19996;-69
2023/02/05 02:16:20;;;;;;;1.13;0.60;;;11.80;74.70;;;;;;6188295;23;20068;-69
2023/02/05 02:18:46;;;;;;;0.63;0.63;;;11.80;74.70;;;;;;6188155;23;20499;-69
2023/02/05 02:21:33;;;;;;;0.60;0.60;;;11.80;74.70;;;;;;6188316;23;20000;-69
2023/02/05 02:24:17;;;;;;;0.57;0.55;;;11.70;74.60;;;;;;6214421;23;20001;-69
2023/02/05 02:27:13;;;;;;;1.00;0.70;;;11.80;74.70;;;;;;6214459;23;20020;-69
2023/02/05 02:30:02;;;;;;;0.70;0.70;;;11.80;74.70;;;;;;6213123;23;20001;-69
2023/02/05 02:32:36;;;;;;;1.33;0.85;;;11.80;74.70;;;;;;6214566;23;20007;-69
2023/02/05 02:35:30;;;;;;;0.63;0.63;;;11.80;75.70;;;;;;6213334;23;20011;-69
2023/02/05 02:38:31;;;;;;;0.80;0.80;;;11.80;74.70;;;;;;6212964;23;20465;-69
2023/02/05 02:41:27;;;;;;;0.68;0.68;;;11.80;74.70;;;;;;6213128;23;20456;-69
2023/02/05 02:44:03;;;;;;;0.70;0.70;;;11.80;74.70;;;;;;6213133;23;20430;-69
2023/02/05 02:46:41;;;;;;;0.65;0.55;;;11.70;74.60;;;;;;6214597;23;20004;-69
2023/02/05 02:49:10;;;;;;;0.70;0.70;;;11.80;74.60;;;;;;6190274;23;20036;-69
2023/02/05 02:51:36;;;;;;;0.60;0.60;;;11.80;74.70;;;;;;6190952;23;20004;-69
2023/02/05 02:54:04;;;;;;;0.82;0.60;;;11.80;74.70;;;;;;6189781;23;20008;-69
2023/02/05 02:56:30;;;;;;;0.80;0.73;;;11.80;74.70;;;;;;6190266;23;20027;-69
2023/02/05 02:59:01;;;;;;;1.23;0.98;;;11.70;74.70;;;;;;6190150;23;20004;-69
2023/02/05 03:01:28;;;;;;;0.70;0.70;;;11.70;74.70;;;;;;6190908;23;20005;-69
2023/02/05 03:04:02;;;;;;;0.77;0.70;;;11.70;74.60;;;;;;6190000;23;20000;-68
2023/02/05 03:06:28;;;;;;;0.70;0.70;;;11.70;74.60;;;;;;6214692;23;20318;-69
2023/02/05 03:09:06;;;;;;;0.73;0.73;;;11.70;74.70;;;;;;6214928;23;20008;-69
2023/02/05 03:11:32;;;;;;;0.82;0.82;;;11.70;74.70;;;;;;6215221;23;20005;-69
2023/02/05 03:13:57;;;;;;;0.60;0.60;;;11.70;74.70;;;;;;6189760;23;19997;-69
2023/02/05 03:16:23;;;;;;;0.85;0.80;;;11.70;74.70;;;;;;6189883;23;19997;-69
2023/02/05 03:18:49;;;;;;;0.82;0.82;;;11.70;74.70;;;;;;6164839;23;20055;-69
2023/02/05 03:21:27;;;;;;;0.73;0.73;;;11.70;74.70;;;;;;6214596;23;20020;-69
2023/02/05 03:23:52;;;;;;;1.02;0.90;;;11.70;74.70;;;;;;6190843;23;20027;-69
2023/02/05 03:26:33;;;;;;;0.90;0.65;;;11.70;75.70;;;;;;6214713;23;20017;-69
2023/02/05 03:29:00;;;;;;;1.00;0.68;;;11.70;74.70;;;;;;6190990;23;20089;-69
2023/02/05 03:31:38;;;;;;;0.70;0.70;;;11.70;74.70;;;;;;6189973;23;20050;-69
2023/02/05 03:34:18;;;;;;;0.68;0.65;;;11.70;74.70;;;;;;6216115;23;20001;-69
2023/02/05 03:37:07;;;;;;;0.82;0.82;;;11.70;74.70;;;;;;6215635;23;20028;-69
2023/02/05 03:39:55;;;;;;;0.60;0.60;;;11.70;74.70;;;;;;6214861;23;20004;-69
2023/02/05 03:42:39;;;;;;;0.77;0.77;;;11.70;74.70;;;;;;6216025;23;20005;-69
2023/02/05 03:45:12;;;;;;;0.82;0.82;;;11.70;74.80;;;;;;6214772;23;20007;-69
2023/02/05 03:47:59;;;;;;;0.63;0.63;;;11.70;74.70;;;;;;6214822;23;20033;-69
2023/02/05 03:50:52;;;;;;;1.75;0.60;;;11.70;74.70;;;;;;6215702;23;20011;-69
2023/02/05 03:53:28;;;;;;;0.60;0.60;;;11.70;74.60;;;;;;6215929;23;19996;-69
2023/02/05 03:56:33;;;;;;;0.80;0.70;;;11.70;74.60;;;;;;6214621;23;20016;-69
2023/02/05 03:58:59;;;;;;;0.60;0.60;;;11.70;74.60;;;;;;6214353;23;20005;-69
2023/02/05 04:01:25;;;;;;;0.80;0.80;;;11.70;74.70;;;;;;6189550;23;20031;-69
2023/02/05 04:03:50;;;;;;;0.77;0.77;;;11.70;74.60;;;;;;6189413;23;20347;-69
2023/02/05 04:06:16;;;;;;;0.70;0.70;;;11.70;74.70;;;;;;6214259;23;20333;-68
2023/02/05 04:08:44;;;;;;;1.25;0.82;;;11.70;74.70;;;;;;6214184;23;20445;-69
2023/02/05 04:11:10;;;;;;;0.52;0.52;;;11.70;74.70;;;;;;6215945;23;20046;-69
2023/02/05 04:13:36;;;;;;;0.80;0.80;;;11.70;74.70;;;;;;6189736;23;19996;-69
2023/02/05 04:16:01;;;;;;;0.70;0.70;;;11.70;74.70;;;;;;6215701;23;20000;-69
2023/02/05 04:18:27;;;;;;;1.45;0.77;;;11.70;74.70;;;;;;6215890;23;20004;-69
2023/02/05 04:20:52;;;;;;;0.60;0.60;;;11.70;74.60;;;;;;6215527;23;20249;-69
2023/02/05 04:23:18;;;;;;;0.70;0.70;;;11.70;74.60;;;;;;6214434;23;20365;-69
2023/02/05 04:25:44;;;;;;;1.95;0.63;;;11.70;74.60;;;;;;6213918;23;20013;-69
2023/02/05 04:28:09;;;;;;;1.40;0.70;;;11.70;74.60;;;;;;6215756;23;20086;-69
2023/02/05 04:30:35;;;;;;;0.80;0.77;;;11.70;74.60;;;;;;6214312;23;20441;-69
2023/02/05 04:33:01;;;;;;;0.82;0.75;;;11.70;74.70;;;;;;6214233;23;19997;-69
2023/02/05 04:35:26;;;;;;;0.70;0.70;;;11.70;74.70;;;;;;6215401;23;19997;-69
2023/02/05 04:37:52;;;;;;;0.60;0.60;;;11.70;74.70;;;;;;6189147;23;20457;-69
2023/02/05 04:40:18;;;;;;;0.60;0.60;;;11.70;74.60;;;;;;6214142;23;20008;-69
2023/02/05 04:42:44;;;;;;;0.70;0.70;;;11.70;74.70;;;;;;6214033;23;20008;-69
2023/02/05 04:45:09;;;;;;;0.70;0.70;;;11.70;74.60;;;;;;6215518;23;20025;-68
2023/02/05 04:47:35;;;;;;;0.82;0.70;;;11.70;74.60;;;;;;6189206;23;20032;-69
2023/02/05 04:50:01;;;;;;;0.80;0.70;;;11.70;74.60;;;;;;6213643;23;20015;-69
2023/02/05 04:52:26;;;;;;;0.70;0.70;;;11.70;74.60;;;;;;6215529;23;20433;-69
2023/02/05 04:54:52;;;;;;;0.73;0.70;;;11.70;74.60;;;;;;6214033;23;20028;-69
2023/02/05 04:57:18;;;;;;;0.93;0.88;;;11.70;74.60;;;;;;6214048;23;20001;-69
2023/02/05 04:59:43;;;;;;;0.80;0.60;;;11.70;74.60;;;;;;6215343;23;20004;-69
2023/02/05 05:02:09;;;;;;;0.60;0.60;;;11.70;74.70;;;;;;6215302;23;20005;-69
2023/02/05 05:04:35;;;;;;;1.05;0.75;;;11.70;74.60;;;;;;6188645;23;20349;-69
2023/02/05 05:07:01;;;;;;;0.80;0.80;;;11.70;74.60;;;;;;6215262;23;20000;-69
2023/02/05 05:09:27;;;;;;;0.93;0.85;;;11.60;74.60;;;;;;6213441;23;20011;-69
2023/02/05 05:11:52;;;;;;;0.82;0.82;;;11.60;74.60;;;;;;6213796;23;20023;-69
2023/02/05 05:14:18;;;;;;;0.70;0.68;;;11.70;74.70;;;;;;6214023;23;20076;-69
2023/02/05 05:16:44;;;;;;;0.73;0.73;;;11.60;74.60;;;;;;6213748;23;19996;-69
2023/02/05 05:19:09;;;;;;;0.82;0.82;;;11.70;74.60;;;;;;6213497;23;20075;-69
2023/02/05 05:21:35;;;;;;;0.88;0.88;;;11.70;74.70;;;;;;6188862;23;20350;-69
2023/02/05 05:24:01;;;;;;;1.27;0.85;;;11.70;75.60;;;;;;6213499;23;20438;-69
2023/02/05 05:26:26;;;;;;;0.70;0.70;;;11.60;74.60;;;;;;6215040;23;20012;-69
2023/02/05 05:28:55;;;;;;;0.75;0.70;;;11.70;74.70;;;;;;6213611;23;20000;-69
2023/02/05 05:31:21;;;;;;;1.13;0.82;;;11.60;74.60;;;;;;6213682;23;20498;-69
2023/02/05 05:33:47;;;;;;;0.70;0.70;;;11.60;74.60;;;;;;6188353;23;20000;-69
2023/02/05 05:36:13;;;;;;;0.88;0.88;;;11.70;74.60;;;;;;6188545;23;20066;-69
2023/02/05 05:38:38;;;;;;;0.82;0.82;;;11.70;74.60;;;;;;6215162;23;20008;-69
2023/02/05 05:43:49;;;;;;;0.80;0.80;;;11.60;74.50;;;;;;6213656;23;20345;-68
2023/02/05 05:46:22;;;;;;;0.57;0.57;;;11.70;74.60;;;;;;6214793;23;20009;-68
2023/02/05 05:48:58;;;;;;;0.60;0.60;;;11.60;74.50;;;;;;6213582;23;20445;-68
2023/02/05 05:51:24;;;;;;;0.90;0.63;;;11.60;74.50;;;;;;6213525;23;20001;-69
2023/02/05 05:53:50;;;;;;;0.70;0.70;;;11.70;74.60;;;;;;6188543;23;20001;-69
2023/02/05 05:56:16;;;;;;;0.70;0.70;;;11.70;74.60;;;;;;6213520;23;20392;-68
2023/02/05 05:58:42;;;;;;;1.02;0.80;;;11.60;74.60;;;;;;6188450;23;20087;-69
2023/02/05 06:01:08;;;;;;;0.68;0.65;;;11.60;74.60;;;;;;6213007;23;20392;-69
2023/02/05 06:03:33;;;;;;;0.88;0.80;;;11.70;74.70;;;;;;6213578;23;20434;-69
2023/02/05 06:06:01;;;;;;;1.67;0.85;;;11.60;74.60;;;;;;6213120;23;20050;-69
2023/02/05 06:08:26;;;;;;;1.05;0.90;;;11.60;74.60;;;;;;6213180;23;20005;-69
2023/02/05 06:10:52;;;;;;;0.77;0.70;;;11.60;74.60;;;;;;6214772;23;20337;-69
2023/02/05 06:13:17;;;;;;;0.82;0.82;;;11.60;74.60;;;;;;6214807;23;20001;-69
2023/02/05 06:15:43;;;;;;;0.80;0.70;;;11.60;74.60;;;;;;6213080;23;20001;-69
2023/02/05 06:18:09;;;;;;;0.70;0.70;;;11.60;74.60;;;;;;6215033;23;20575;-69
2023/02/05 06:20:34;;;;;;;0.70;0.70;;;11.60;74.60;;;;;;6214451;23;20001;-69
2023/02/05 06:23:00;;;;;;;0.93;0.90;;;11.60;74.60;;;;;;6214821;23;20005;-69
2023/02/05 06:25:26;;;;;;;0.70;0.70;;;11.60;74.60;;;;;;6213094;23;20019;-68
2023/02/05 06:27:51;;;;;;;0.70;0.70;;;11.60;74.60;;;;;;6214635;23;20011;-68
2023/02/05 06:30:17;;;;;;;0.70;0.70;;;11.60;74.60;;;;;;6187523;23;20051;-69
2023/02/05 06:32:43;;;;;;;0.70;0.63;;;11.60;74.50;;;;;;6215051;23;20125;-69
2023/02/05 06:35:08;;;;;;;0.73;0.73;;;11.70;74.60;;;;;;6213229;23;20024;-69
2023/02/05 06:37:34;;;;;;;1.23;0.75;;;11.60;74.50;;;;;;6213266;23;20054;-69
2023/02/05 06:40:00;;;;;;;0.50;0.50;;;11.60;74.50;;;;;;6214361;23;20004;-69
2023/02/05 06:42:25;;;;;;;0.80;0.80;;;11.60;74.50;;;;;;6214642;23;20004;-69
2023/02/05 06:44:51;;;;;;;0.60;0.60;;;11.60;74.60;;;;;;6213049;23;20005;-69
2023/02/05 06:47:16;;;;;;;0.70;0.70;;;11.60;74.60;;;;;;6214543;23;20004;-69
2023/02/05 06:49:42;;;;;;;0.73;0.60;;;11.60;74.70;;;;;;6213239;23;20322;-69
2023/02/05 06:52:08;;;;;;;0.82;0.82;;;11.60;74.60;;;;;;6214547;23;20337;-69
2023/02/05 06:54:33;;;;;;;1.10;1.00;;;11.70;74.60;;;;;;6214467;23;19996;-69
2023/02/05 06:56:59;;;;;;;0.65;0.60;;;11.60;74.60;;;;;;6214598;23;20067;-69
2023/02/05 06:59:25;;;;;;;0.68;0.57;;;11.70;74.70;;;;;;6214140;23;20456;-69
2023/02/05 07:01:51;;;;;;;0.90;0.70;;;11.60;74.70;;;;;;6214508;23;20000;-69
2023/02/05 07:04:17;;;;;;;0.70;0.70;;;11.60;74.60;;;;;;6214941;23;20008;-69
2023/02/05 07:06:42;;;;;;;0.80;0.70;;;11.60;74.60;;;;;;6212959;23;20079;-69
2023/02/05 07:09:08;;;;;;;1.23;0.70;;;11.60;74.70;;;;;;6214376;23;20001;-68
2023/02/05 07:11:34;;;;;;;0.70;0.70;;;11.60;74.70;;;;;;6214587;23;19997;-69
2023/02/05 07:14:01;;;;;;;0.75;0.75;;;11.60;74.70;;;;;;6214179;23;20005;-69
2023/02/05 07:16:27;;;;;;;0.68;0.68;;;11.60;74.80;;;;;;6214433;23;20000;-68
2023/02/05 07:18:52;;;;;;;0.65;0.65;;;11.60;74.70;;;;;;6188198;23;20001;-69
2023/02/05 07:21:18;;;;;;;0.73;0.73;;;11.60;74.70;;;;;;6214361;23;20011;-69
2023/02/05 07:23:43;;;;;;;0.82;0.68;;;11.60;74.70;;;;;;6212913;23;20027;-68
2023/02/05 07:26:11;;;;;;;0.75;0.70;;;11.60;74.60;;;;;;6212767;23;20405;-69
2023/02/05 07:28:37;;;;;;;0.68;0.68;;;11.60;74.70;;;;;;6214110;23;20468;-69
2023/02/05 07:31:07;;;;;;;1.65;0.82;;;11.60;74.70;;;;;;6212883;23;20005;-68
2023/02/05 07:33:33;;;;;;;0.85;0.70;;;11.60;74.80;;;;;;6189716;23;20476;-69
2023/02/05 07:36:06;;;;;;;1.17;0.80;;;11.60;74.70;;;;;;6214569;23;20001;-69
2023/02/05 07:38:31;;;;;;;0.63;0.63;;;11.60;74.70;;;;;;6216289;23;20004;-68
2023/02/05 07:40:57;;;;;;;0.77;0.68;;;11.60;74.70;;;;;;6189600;23;20001;-68
2023/02/05 07:43:23;;;;;;;0.65;0.65;;;11.60;74.70;;;;;;6214330;23;20511;-69
2023/02/05 07:45:59;;;;;;;1.08;0.73;;;11.60;74.70;;;;;;6214642;23;20372;-69
2023/02/05 07:48:24;;;;;;;0.60;0.60;;;11.60;74.60;;;;;;6214510;23;20000;-69
2023/02/05 07:50:50;;;;;;;0.77;0.52;;;11.60;74.70;;;;;;6214675;23;20067;-69
2023/02/05 07:53:16;;;;;;;0.57;0.57;;;11.60;74.70;;;;;;6214542;23;20460;-69
2023/02/05 07:55:41;;;;;;;0.80;0.80;;;11.60;74.70;;;;;;6214688;23;20036;-69
2023/02/05 07:58:07;;;;;;;1.30;0.70;;;11.60;74.70;;;;;;6215570;23;20001;-69
2023/02/05 08:00:33;;;;;;;0.68;0.68;;;11.60;74.70;;;;;;6189586;23;20028;-69
2023/02/05 08:02:59;;;;;;;0.90;0.80;;;11.60;75.80;;;;;;6214387;23;20031;-69
2023/02/05 08:05:25;;;;;;;0.70;0.70;;;11.60;74.80;;;;;;6214729;23;20437;-69
2023/02/05 08:07:50;;;;;;;0.82;0.60;;;11.60;74.70;;;;;;6214309;23;20349;-69
2023/02/05 08:10:16;;;;;;;0.50;0.50;;;11.60;74.70;;;;;;6214457;23;20008;-69
2023/02/05 08:12:42;;;;;;;0.60;0.60;;;11.60;74.60;;;;;;6213983;23;20000;-69
2023/02/05 08:15:08;;;;;;;0.75;0.63;;;11.60;74.70;;;;;;6215736;23;19996;-68
2023/02/05 08:17:33;;;;;;;0.90;0.73;;;11.60;74.70;;;;;;6215844;23;20071;-69
2023/02/05 08:20:05;;;;;;;1.80;0.90;;;11.60;74.70;;;;;;6215483;23;20008;-69
2023/02/05 08:22:32;;;;;;;0.60;0.60;;;11.60;74.80;;;;;;6215753;23;20005;-68
2023/02/05 08:24:58;;;;;;;0.60;0.60;;;11.60;74.70;;;;;;6214389;23;20015;-69
2023/02/05 08:27:23;;;;;;;0.60;0.60;;;11.60;74.80;;;;;;6215254;23;20044;-69
2023/02/05 08:29:49;;;;;;;0.60;0.60;;;11.60;74.80;;;;;;6215572;23;20449;-69
2023/02/05 08:32:15;;;;;;;0.60;0.60;;;11.60;74.70;;;;;;6215497;23;19996;-69
2023/02/05 08:34:40;;;;;;;0.88;0.70;;;11.60;74.70;;;;;;6214189;23;19997;-69
2023/02/05 08:37:06;;;;;;;0.73;0.73;;;11.60;74.70;;;;;;6213921;23;20051;-68
2023/02/05 08:39:31;;;;;;;0.73;0.73;;;11.60;74.70;;;;;;6215721;23;20001;-69
2023/02/05 08:41:57;;;;;;;0.95;0.77;;;11.60;74.70;;;;;;6215245;23;20004;-69
2023/02/05 08:44:23;;;;;;;0.75;0.70;;;11.60;74.70;;;;;;6213919;23;20008;-68
2023/02/05 08:46:48;;;;;;;0.80;0.75;;;11.60;74.80;;;;;;6215660;23;20341;-69
2023/02/05 08:49:15;;;;;;;0.60;0.60;;;11.60;74.80;;;;;;6215194;23;20015;-69
2023/02/05 08:51:41;;;;;;;0.70;0.70;;;11.60;74.80;;;;;;6214025;23;20433;-69
2023/02/05 08:54:11;;;;;;;0.52;0.52;;;11.60;74.80;;;;;;6213971;23;20445;-68
2023/02/05 08:56:38;;;;;;;0.60;0.60;;;11.60;74.80;;;;;;6215163;23;20055;-69
2023/02/05 08:59:04;;;;;;;0.52;0.50;;;11.60;74.70;;;;;;6213704;23;20392;-69
2023/02/05 09:01:30;;;;;;;0.60;0.60;;;11.60;74.70;;;;;;6214123;23;20001;-69
2023/02/05 09:03:56;;;;;;;0.60;0.60;;;11.60;74.70;;;;;;6213992;23;20008;-69
2023/02/05 09:06:21;;;;;;;0.70;0.70;;;11.60;74.80;;;;;;6213738;23;20001;-68
2023/02/05 09:08:47;;;;;;;0.70;0.70;;;11.60;74.80;;;;;;6188932;23;20000;-68
2023/02/05 09:11:13;;;;;;;0.60;0.60;;;11.60;74.80;;;;;;6215083;23;19997;-68
2023/02/05 09:13:39;;;;;;;0.60;0.60;;;11.60;74.80;;;;;;6213994;23;20055;-69
2023/02/05 09:16:05;;;;;;;0.70;0.70;;;11.50;74.80;;;;;;6214181;23;20079;-69
2023/02/05 09:18:30;;;;;;;0.70;0.70;;;11.60;74.80;;;;;;6213463;23;20029;-69
2023/02/05 09:20:56;;;;;;;0.57;0.57;;;11.60;74.80;;;;;;6213761;23;20000;-69
2023/02/05 09:23:22;;;;;;;0.63;0.63;;;11.60;74.80;;;;;;6213815;23;20441;-68
2023/02/05 09:25:47;;;;;;;0.50;0.50;;;11.50;74.70;;;;;;6213265;23;20013;-69
2023/02/05 09:28:13;;;;;;;0.65;0.65;;;11.60;74.80;;;;;;6213643;23;19997;-69
2023/02/05 09:30:41;;;;;;;0.80;0.60;;;11.50;74.70;;;;;;6213455;23;20337;-69
2023/02/05 09:33:07;;;;;;;0.75;0.68;;;11.60;74.80;;;;;;6213603;23;20028;-69
2023/02/05 09:35:33;;;;;;;0.65;0.65;;;11.60;74.80;;;;;;6213864;23;20001;-69
2023/02/05 09:38:01;;;;;;;0.38;0.38;;;11.60;74.80;;;;;;6213111;23;20341;-68
2023/02/05 09:40:47;;;;;;;0.60;0.60;;;11.60;74.80;;;;;;6189135;23;20000;-69
2023/02/05 09:43:28;;;;;;;0.60;0.60;;;11.50;74.80;;;;;;6192813;23;20009;-69
2023/02/05 09:46:04;;;;;;;0.60;0.60;;;11.60;74.80;;;;;;6214931;23;20091;-69
2023/02/05 09:48:36;;;;;;;0.60;0.60;;;11.50;74.70;;;;;;6213441;23;20087;-69
2023/02/05 09:51:01;;;;;;;0.50;0.50;;;11.60;74.80;;;;;;6215178;23;19997;-69
2023/02/05 09:53:32;;;;;;;0.70;0.50;;;11.50;74.80;;;;;;6188373;23;20384;-69
2023/02/05 09:55:57;;;;;;;0.60;0.60;;;11.60;74.80;;;;;;6189062;23;20003;-69
2023/02/05 09:58:26;;;;;;;0.80;0.65;;;11.50;74.80;;;;;;6213372;23;19997;-69
2023/02/05 10:01:21;;;;;;;0.70;0.70;;;11.50;75.30;;;;;;6188909;23;20074;-69
2023/02/05 10:03:52;;;;;;;0.60;0.60;;;11.60;74.80;;;;;;6213554;23;19997;-69
2023/02/05 10:06:20;;;;;;;0.60;0.60;;;11.50;74.70;;;;;;6189046;23;20001;-69
2023/02/05 10:09:15;;;;;;;0.60;0.60;;;11.50;74.80;;;;;;6214550;23;20008;-69
2023/02/05 10:11:55;;;;;;;0.60;0.60;;;11.50;74.80;;;;;;6193022;23;20428;-69
2023/02/05 10:14:58;;;;;;;0.60;0.60;;;11.50;74.80;;;;;;6214634;23;20005;-69
2023/02/05 10:17:40;;;;;;;0.50;0.50;;;11.50;74.80;;;;;;6214785;23;20001;-69
2023/02/05 10:20:11;;;;;;;0.60;0.60;;;11.50;74.80;;;;;;6213291;23;20437;-69
2023/02/05 10:23:05;;;;;;;0.50;0.50;;;11.60;74.80;;;;;;6214398;23;20009;-69
2023/02/05 10:25:33;;;;;;;0.65;0.60;;;11.50;74.90;;;;;;6213167;23;20013;-69
2023/02/05 10:28:37;;;;;;;0.60;0.60;;;11.50;74.80;;;;;;6214714;23;20001;-69
2023/02/05 10:31:37;;;;;;;0.50;0.50;;;11.50;74.90;;;;;;6214592;23;20005;-69
2023/02/05 10:34:29;;;;;;;0.68;0.68;;;11.50;74.80;;;;;;6188035;23;20011;-69
2023/02/05 10:36:55;;;;;;;0.82;0.80;;;11.50;74.80;;;;;;6069137;23;20459;-69
2023/02/05 10:39:24;;;;;;;0.68;0.68;;;11.50;74.90;;;;;;6069558;23;20010;-69
2023/02/05 10:41:56;;;;;;;0.50;0.50;;;11.50;74.90;;;;;;6069494;23;20490;-69
2023/02/05 10:44:29;;;;;;;0.52;0.52;;;11.50;74.90;;;;;;6093611;23;20014;-69
2023/02/05 10:47:00;;;;;;;0.82;0.68;;;11.50;74.90;;;;;;6069862;23;20013;-69
2023/02/05 10:49:28;;;;;;;0.55;0.50;;;11.60;74.80;;;;;;6070117;23;20011;-69
2023/02/05 10:51:53;;;;;;;0.50;0.50;;;11.60;74.80;;;;;;6069422;23;20007;-69
2023/02/05 10:54:26;;;;;;;0.60;0.60;;;11.60;74.80;;;;;;6069706;23;20078;-69
2023/02/05 10:56:51;;;;;;;0.73;0.70;;;11.50;74.80;;;;;;6069712;23;20007;-69
2023/02/05 10:59:22;;;;;;;0.55;0.55;;;11.50;74.80;;;;;;6069434;23;20057;-69
2023/02/05 11:01:48;;;;;;;1.50;0.68;;;11.50;74.90;;;;;;6069867;23;20493;-69
2023/02/05 11:04:15;;;;;;;0.60;0.60;;;11.50;74.90;;;;;;6069692;23;20010;-69
2023/02/05 11:06:43;;;;;;;0.52;0.52;;;11.50;74.90;;;;;;6070222;23;20010;-69
2023/02/05 11:09:27;;;;;;;0.50;0.50;;;11.50;74.90;;;;;;6071300;23;20018;-69
2023/02/05 11:12:01;;;;;;;0.50;0.50;;;11.50;74.80;;;;;;6071662;23;20010;-69
2023/02/05 11:14:32;;;;;;;0.40;0.40;;;11.60;74.90;;;;;;6168495;23;20012;-69
2023/02/05 11:16:57;;;;;;;0.75;0.55;;;11.60;74.80;;;;;;6215008;23;20001;-69
2023/02/05 11:19:25;;;;;;;0.50;0.50;;;11.60;74.80;;;;;;6189800;23;20028;-69
2023/02/05 11:21:59;;;;;;;0.50;0.50;;;11.60;75.80;;;;;;6214736;23;20058;-69
2023/02/05 11:24:31;;;;;;;0.60;0.55;;;11.50;74.80;;;;;;6215020;23;20425;-69
2023/02/05 11:27:18;;;;;;;0.63;0.63;;;11.50;74.90;;;;;;6216244;23;20028;-69
2023/02/05 11:29:44;;;;;;;0.70;0.70;;;11.60;75.00;;;;;;6216428;23;20036;-69
2023/02/05 11:32:20;;;;;;;0.60;0.60;;;11.50;74.90;;;;;;6216232;23;19997;-69
2023/02/05 11:34:46;;;;;;;0.63;0.63;;;11.50;74.90;;;;;;6189946;23;20008;-69
2023/02/05 11:37:15;;;;;;;0.50;0.50;;;11.50;74.90;;;;;;6215986;23;20337;-69
2023/02/05 11:39:41;;;;;;;0.70;0.70;;;11.50;74.90;;;;;;6190315;23;20009;-69
2023/02/05 11:42:19;;;;;;;0.60;0.60;;;11.50;74.90;;;;;;6214721;23;20445;-69
2023/02/05 11:44:50;;;;;;;0.60;0.60;;;11.50;74.90;;;;;;6215044;23;20079;-69
2023/02/05 11:47:33;;;;;;;0.60;0.60;;;11.50;74.90;;;;;;6214619;23;20005;-69
2023/02/05 11:49:58;;;;;;;0.60;0.60;;;11.50;74.80;;;;;;6214409;23;20006;-69
2023/02/05 11:52:27;;;;;;;0.55;0.55;;;11.50;74.90;;;;;;6189519;23;20294;-69
2023/02/05 11:54:52;;;;;;;0.70;0.70;;;11.60;75.00;;;;;;6190137;23;20008;-69
2023/02/05 11:57:20;;;;;;;0.52;0.52;;;11.50;75.00;;;;;;6214516;23;20341;-69
2023/02/05 12:00:19;;;;;;;0.60;0.60;;;11.50;75.00;;;;;;6216118;23;20005;-69
2023/02/05 12:02:48;;;;;;;1.08;0.60;;;11.50;74.90;;;;;;6214070;23;20013;-69
2023/02/05 12:05:20;;;;;;;0.45;0.45;;;11.50;74.90;;;;;;6189824;23;20005;-69
2023/02/05 12:07:47;;;;;;;0.82;0.60;;;11.50;74.90;;;;;;6214507;23;20448;-69
2023/02/05 12:10:17;;;;;;;0.50;0.50;;;11.50;74.90;;;;;;6214410;23;20008;-69
2023/02/05 12:13:02;;;;;;;0.60;0.60;;;11.50;74.90;;;;;;6190092;23;19997;-69
2023/02/05 12:15:36;;;;;;;0.55;0.55;;;11.50;74.80;;;;;;6214445;23;20464;-69
2023/02/05 12:18:26;;;;;;;0.60;0.60;;;11.50;74.90;;;;;;6190249;23;20004;-69
2023/02/05 12:21:09;;;;;;;0.43;0.43;;;11.50;74.90;;;;;;6214422;23;20026;-69
2023/02/05 12:23:59;;;;;;;0.50;0.50;;;11.50;74.90;;;;;;6215877;23;20032;-68
2023/02/05 12:26:26;;;;;;;0.98;0.60;;;11.50;75.00;;;;;;6214265;23;20008;-69
2023/02/05 12:29:00;;;;;;;0.50;0.50;;;11.50;74.90;;;;;;6214359;23;20004;-69
2023/02/05 12:31:44;;;;;;;0.50;0.50;;;11.50;75.00;;;;;;6215670;23;20340;-69
2023/02/05 12:34:39;;;;;;;0.50;0.50;;;11.50;75.00;;;;;;6215434;23;20070;-69
2023/02/05 12:37:23;;;;;;;0.55;0.55;;;11.50;74.90;;;;;;6214228;23;20004;-69
2023/02/05 12:39:56;;;;;;;0.68;0.50;;;11.50;74.90;;;;;;6190411;23;20032;-69
2023/02/05 12:42:24;;;;;;;0.82;0.60;;;11.50;75.00;;;;;;6164832;23;20397;-69
2023/02/05 12:45:24;;;;;;;0.50;0.50;;;11.50;74.90;;;;;;6215568;23;20075;-69
2023/02/05 12:48:12;;;;;;;0.60;0.60;;;11.50;75.00;;;;;;6215339;23;20000;-69
2023/02/05 12:50:50;;;;;;;0.90;0.52;;;11.50;75.00;;;;;;6214134;23;20027;-69
2023/02/05 12:53:26;;;;;;;0.52;0.50;;;11.50;75.00;;;;;;6215448;23;20433;-69
2023/02/05 12:56:20;;;;;;;0.80;0.70;;;11.50;75.00;;;;;;6189916;23;20001;-69
2023/02/05 12:58:46;;;;;;;;;;;11.50;75.00;;;;;;6216167;23;20005;-69
2023/02/05 13:01:15;;;;;;;0.50;0.50;;;11.50;75.00;;;;;;6213651;23;19950;-68
2023/02/05 13:03:52;;;;;;;0.57;0.50;;;11.50;75.00;;;;;;6213941;23;20016;-69
2023/02/05 13:06:23;;;;;;;0.50;0.50;;;11.50;75.00;;;;;;6189231;23;20000;-68